sensor_id;sensor_type;location;lat;lon;timestamp;pressure;altitude;pressure_sealevel;temperature;humidity
70758;BME280;59316;52.964;7.102;2023-04-26T00:01:46;101732.59;;;2.09;nan
70758;BME280;59316;52.964;7.102;2023-04-26T00:07:07;101737.00;;;1.98;nan
70758;BME280;59316;52.964;7.102;2023-04-26T00:12:29;101744.69;;;2.03;nan
70758;BME280;59316;52.964;7.102;2023-04-26T00:17:50;101745.72;;;1.83;nan
70758;BME280;59316;52.964;7.102;2023-04-26T00:23:12;101734.69;;;1.69;nan
70758;BME280;59316;52.964;7.102;2023-04-26T00:28:33;101760.91;;;2.17;nan
70758;BME280;59316;52.964;7.102;2023-04-26T00:33:55;101766.72;;;3.08;nan
70758;BME280;59316;52.964;7.102;2023-04-26T00:39:16;101742.38;;;3.77;nan
70758;BME280;59316;52.964;7.102;2023-04-26T00:44:38;101742.13;;;3.91;nan
70758;BME280;59316;52.964;7.102;2023-04-26T00:50:00;101746.56;;;3.85;nan
70758;BME280;59316;52.964;7.102;2023-04-26T00:55:22;101747.94;;;3.54;nan
70758;BME280;59316;52.964;7.102;2023-04-26T01:00:44;101730.19;;;3.31;nan
70758;BME280;59316;52.964;7.102;2023-04-26T01:06:06;101724.56;;;3.04;nan
70758;BME280;59316;52.964;7.102;2023-04-26T01:11:30;101719.78;;;2.75;nan
70758;BME280;59316;52.964;7.102;2023-04-26T01:16:52;101732.13;;;2.49;nan
70758;BME280;59316;52.964;7.102;2023-04-26T01:22:14;101732.41;;;2.26;nan
70758;BME280;59316;52.964;7.102;2023-04-26T01:27:36;101739.34;;;2.20;nan
70758;BME280;59316;52.964;7.102;2023-04-26T01:32:58;101746.81;;;2.44;nan
70758;BME280;59316;52.964;7.102;2023-04-26T01:38:19;101754.16;;;2.80;nan
70758;BME280;59316;52.964;7.102;2023-04-26T01:43:41;101761.59;;;3.03;nan
70758;BME280;59316;52.964;7.102;2023-04-26T01:49:02;101763.19;;;3.13;nan
70758;BME280;59316;52.964;7.102;2023-04-26T01:54:24;101761.56;;;3.06;nan
70758;BME280;59316;52.964;7.102;2023-04-26T01:59:45;101759.31;;;2.80;nan
70758;BME280;59316;52.964;7.102;2023-04-26T02:05:09;101757.22;;;2.38;nan
70758;BME280;59316;52.964;7.102;2023-04-26T02:10:31;101743.59;;;2.25;nan
70758;BME280;59316;52.964;7.102;2023-04-26T02:15:52;101749.31;;;2.55;nan
70758;BME280;59316;52.964;7.102;2023-04-26T02:21:16;101750.13;;;2.57;nan
70758;BME280;59316;52.964;7.102;2023-04-26T02:26:37;101750.34;;;2.39;nan
70758;BME280;59316;52.964;7.102;2023-04-26T02:31:59;101752.94;;;2.39;nan
70758;BME280;59316;52.964;7.102;2023-04-26T02:37:20;101748.34;;;2.64;nan
70758;BME280;59316;52.964;7.102;2023-04-26T02:42:42;101740.28;;;2.87;nan
70758;BME280;59316;52.964;7.102;2023-04-26T02:48:04;101744.31;;;3.08;nan
70758;BME280;59316;52.964;7.102;2023-04-26T02:53:26;101740.59;;;3.26;nan
70758;BME280;59316;52.964;7.102;2023-04-26T02:58:47;101748.59;;;3.09;nan
70758;BME280;59316;52.964;7.102;2023-04-26T03:04:09;101747.78;;;3.06;nan
70758;BME280;59316;52.964;7.102;2023-04-26T03:09:31;101745.44;;;2.89;nan
70758;BME280;59316;52.964;7.102;2023-04-26T03:14:53;101743.75;;;2.86;nan
70758;BME280;59316;52.964;7.102;2023-04-26T03:20:17;101734.28;;;2.85;nan
70758;BME280;59316;52.964;7.102;2023-04-26T03:25:38;101728.44;;;2.71;nan
70758;BME280;59316;52.964;7.102;2023-04-26T03:31:01;101728.72;;;2.46;nan
70758;BME280;59316;52.964;7.102;2023-04-26T03:36:23;101725.66;;;2.14;nan
70758;BME280;59316;52.964;7.102;2023-04-26T03:41:44;101731.09;;;1.85;nan
70758;BME280;59316;52.964;7.102;2023-04-26T03:47:07;63551.88;;;-143.20;100.00
70758;BME280;59316;52.964;7.102;2023-04-26T03:52:28;63551.88;;;-143.20;100.00
70758;BME280;59316;52.964;7.102;2023-04-26T03:57:50;63551.88;;;-143.20;100.00
70758;BME280;59316;52.964;7.102;2023-04-26T04:03:11;63551.88;;;-143.20;100.00
70758;BME280;59316;52.964;7.102;2023-04-26T04:08:33;63551.88;;;-143.20;100.00
70758;BME280;59316;52.964;7.102;2023-04-26T04:13:54;63551.88;;;-143.20;100.00
70758;BME280;59316;52.964;7.102;2023-04-26T04:19:16;63551.88;;;-143.20;100.00
70758;BME280;59316;52.964;7.102;2023-04-26T04:24:39;63551.88;;;-143.20;100.00
70758;BME280;59316;52.964;7.102;2023-04-26T04:30:02;63551.88;;;-143.20;100.00
70758;BME280;59316;52.964;7.102;2023-04-26T04:35:25;63551.88;;;-143.20;100.00
70758;BME280;59316;52.964;7.102;2023-04-26T04:40:47;63551.88;;;-143.20;100.00
70758;BME280;59316;52.964;7.102;2023-04-26T04:46:08;63551.88;;;-143.20;100.00
70758;BME280;59316;52.964;7.102;2023-04-26T04:51:32;63551.88;;;-143.20;100.00
70758;BME280;59316;52.964;7.102;2023-04-26T04:56:53;63551.88;;;-143.20;100.00
70758;BME280;59316;52.964;7.102;2023-04-26T05:02:15;63551.88;;;-143.20;100.00
70758;BME280;59316;52.964;7.102;2023-04-26T05:07:36;63551.88;;;-143.20;100.00
70758;BME280;59316;52.964;7.102;2023-04-26T05:12:59;63551.88;;;-143.20;100.00
70758;BME280;59316;52.964;7.102;2023-04-26T05:18:20;63551.88;;;-143.20;100.00
70758;BME280;59316;52.964;7.102;2023-04-26T05:23:42;63551.88;;;-143.20;100.00
70758;BME280;59316;52.964;7.102;2023-04-26T05:29:03;63551.88;;;-143.20;100.00
70758;BME280;59316;52.964;7.102;2023-04-26T05:34:37;101726.00;;;1.79;nan
70758;BME280;59316;52.964;7.102;2023-04-26T05:40:01;101754.63;;;5.04;nan
70758;BME280;59316;52.964;7.102;2023-04-26T05:45:23;101748.34;;;5.14;nan
70758;BME280;59316;52.964;7.102;2023-04-26T05:50:45;101768.75;;;5.30;nan
70758;BME280;59316;52.964;7.102;2023-04-26T05:56:08;101770.75;;;5.56;nan
70758;BME280;59316;52.964;7.102;2023-04-26T06:01:30;101764.59;;;5.60;nan
70758;BME280;59316;52.964;7.102;2023-04-26T06:06:51;101784.41;;;5.63;nan
70758;BME280;59316;52.964;7.102;2023-04-26T06:12:14;101782.47;;;5.72;nan
70758;BME280;59316;52.964;7.102;2023-04-26T06:17:39;101788.19;;;6.20;nan
70758;BME280;59316;52.964;7.102;2023-04-26T06:23:01;101779.13;;;6.98;nan
70758;BME280;59316;52.964;7.102;2023-04-26T06:28:23;101777.50;;;7.77;nan
70758;BME280;59316;52.964;7.102;2023-04-26T06:33:45;101789.81;;;8.26;nan
70758;BME280;59316;52.964;7.102;2023-04-26T06:39:06;101784.34;;;8.57;nan
70758;BME280;59316;52.964;7.102;2023-04-26T06:44:28;101782.84;;;9.43;nan
70758;BME280;59316;52.964;7.102;2023-04-26T06:49:55;101785.22;;;10.13;nan
70758;BME280;59316;52.964;7.102;2023-04-26T06:55:16;101793.69;;;10.59;nan
70758;BME280;59316;52.964;7.102;2023-04-26T07:00:38;101791.03;;;10.99;nan
70758;BME280;59316;52.964;7.102;2023-04-26T07:06:00;101773.72;;;11.52;nan
70758;BME280;59316;52.964;7.102;2023-04-26T07:11:21;101781.09;;;11.61;nan
70758;BME280;59316;52.964;7.102;2023-04-26T07:16:45;101774.75;;;11.30;nan
70758;BME280;59316;52.964;7.102;2023-04-26T07:22:07;101788.19;;;10.65;nan
70758;BME280;59316;52.964;7.102;2023-04-26T07:27:30;101782.75;;;10.51;nan
70758;BME280;59316;52.964;7.102;2023-04-26T07:32:51;101792.47;;;10.47;nan
70758;BME280;59316;52.964;7.102;2023-04-26T07:38:12;101781.06;;;10.69;nan
70758;BME280;59316;52.964;7.102;2023-04-26T07:43:34;101781.97;;;11.06;nan
70758;BME280;59316;52.964;7.102;2023-04-26T07:48:56;101787.28;;;10.85;nan
70758;BME280;59316;52.964;7.102;2023-04-26T07:54:17;101791.66;;;10.47;nan
70758;BME280;59316;52.964;7.102;2023-04-26T07:59:39;101792.88;;;11.35;nan
70758;BME280;59316;52.964;7.102;2023-04-26T08:05:00;101795.50;;;11.52;nan
70758;BME280;59316;52.964;7.102;2023-04-26T08:10:22;101798.28;;;11.49;nan
70758;BME280;59316;52.964;7.102;2023-04-26T08:15:43;101800.69;;;12.75;nan
70758;BME280;59316;52.964;7.102;2023-04-26T08:21:05;101807.50;;;12.95;nan
70758;BME280;59316;52.964;7.102;2023-04-26T08:26:27;101804.44;;;12.87;nan
70758;BME280;59316;52.964;7.102;2023-04-26T08:31:48;101807.94;;;12.54;nan
70758;BME280;59316;52.964;7.102;2023-04-26T08:37:10;101799.78;;;12.43;nan
70758;BME280;59316;52.964;7.102;2023-04-26T08:42:32;101802.34;;;13.26;nan
70758;BME280;59316;52.964;7.102;2023-04-26T08:48:02;101807.72;;;12.75;nan
70758;BME280;59316;52.964;7.102;2023-04-26T08:53:26;101806.22;;;13.19;nan
70758;BME280;59316;52.964;7.102;2023-04-26T08:58:49;101790.78;;;13.91;nan
70758;BME280;59316;52.964;7.102;2023-04-26T09:04:11;101795.19;;;14.78;nan
70758;BME280;59316;52.964;7.102;2023-04-26T09:09:34;101792.34;;;15.23;nan
70758;BME280;59316;52.964;7.102;2023-04-26T09:15:02;101796.41;;;14.73;nan
70758;BME280;59316;52.964;7.102;2023-04-26T09:20:28;101792.22;;;15.12;nan
70758;BME280;59316;52.964;7.102;2023-04-26T09:25:50;101787.03;;;13.95;nan
70758;BME280;59316;52.964;7.102;2023-04-26T09:31:36;101776.66;;;15.76;nan
70758;BME280;59316;52.964;7.102;2023-04-26T09:36:59;101781.19;;;15.20;nan
70758;BME280;59316;52.964;7.102;2023-04-26T09:42:20;101787.38;;;14.77;nan
70758;BME280;59316;52.964;7.102;2023-04-26T09:47:42;101799.94;;;12.89;nan
70758;BME280;59316;52.964;7.102;2023-04-26T09:53:03;101799.94;;;12.89;nan
70758;BME280;59316;52.964;7.102;2023-04-26T09:58:24;101813.63;;;11.01;nan
70758;BME280;59316;52.964;7.102;2023-04-26T10:03:46;101815.66;;;10.34;nan
70758;BME280;59316;52.964;7.102;2023-04-26T10:09:07;101823.91;;;10.25;nan
70758;BME280;59316;52.964;7.102;2023-04-26T10:14:29;101811.38;;;11.49;nan
70758;BME280;59316;52.964;7.102;2023-04-26T10:19:54;101815.88;;;13.02;nan
70758;BME280;59316;52.964;7.102;2023-04-26T10:25:17;101807.78;;;13.23;nan
70758;BME280;59316;52.964;7.102;2023-04-26T10:30:59;101810.94;;;12.80;nan
70758;BME280;59316;52.964;7.102;2023-04-26T10:36:20;101810.19;;;12.09;nan
70758;BME280;59316;52.964;7.102;2023-04-26T10:41:41;101814.41;;;11.59;nan
70758;BME280;59316;52.964;7.102;2023-04-26T10:47:05;101814.09;;;11.29;nan
70758;BME280;59316;52.964;7.102;2023-04-26T10:52:27;101818.34;;;10.33;nan
70758;BME280;59316;52.964;7.102;2023-04-26T10:57:51;101823.53;;;10.14;nan
70758;BME280;59316;52.964;7.102;2023-04-26T11:03:12;101818.38;;;10.12;nan
70758;BME280;59316;52.964;7.102;2023-04-26T11:08:34;101820.72;;;10.39;nan
70758;BME280;59316;52.964;7.102;2023-04-26T11:13:56;101826.16;;;10.55;nan
70758;BME280;59316;52.964;7.102;2023-04-26T11:19:22;101826.66;;;10.63;nan
70758;BME280;59316;52.964;7.102;2023-04-26T11:24:43;101820.41;;;10.87;nan
70758;BME280;59316;52.964;7.102;2023-04-26T11:30:07;101817.69;;;11.45;nan
70758;BME280;59316;52.964;7.102;2023-04-26T11:35:32;101815.25;;;11.60;nan
70758;BME280;59316;52.964;7.102;2023-04-26T11:41:02;101812.47;;;11.63;nan
70758;BME280;59316;52.964;7.102;2023-04-26T11:46:23;101810.88;;;12.30;nan
70758;BME280;59316;52.964;7.102;2023-04-26T11:51:46;101806.69;;;12.61;nan
70758;BME280;59316;52.964;7.102;2023-04-26T11:57:12;101814.09;;;12.53;nan
70758;BME280;59316;52.964;7.102;2023-04-26T12:02:36;101812.66;;;12.47;nan
70758;BME280;59316;52.964;7.102;2023-04-26T12:07:59;101812.88;;;12.60;nan
70758;BME280;59316;52.964;7.102;2023-04-26T12:13:20;101812.03;;;12.07;nan
70758;BME280;59316;52.964;7.102;2023-04-26T12:18:49;101816.56;;;11.68;nan
70758;BME280;59316;52.964;7.102;2023-04-26T12:24:21;101808.94;;;12.16;nan
70758;BME280;59316;52.964;7.102;2023-04-26T12:29:44;101821.91;;;11.67;nan
70758;BME280;59316;52.964;7.102;2023-04-26T12:35:05;101821.44;;;12.29;nan
70758;BME280;59316;52.964;7.102;2023-04-26T12:40:27;101821.38;;;11.95;nan
70758;BME280;59316;52.964;7.102;2023-04-26T12:45:49;101820.66;;;11.74;nan
70758;BME280;59316;52.964;7.102;2023-04-26T12:51:11;101849.56;;;11.17;nan
70758;BME280;59316;52.964;7.102;2023-04-26T12:56:32;101837.47;;;11.14;nan
70758;BME280;59316;52.964;7.102;2023-04-26T13:01:54;101853.94;;;11.16;nan
70758;BME280;59316;52.964;7.102;2023-04-26T13:07:15;101849.06;;;11.28;nan
70758;BME280;59316;52.964;7.102;2023-04-26T13:12:37;101839.22;;;11.14;nan
70758;BME280;59316;52.964;7.102;2023-04-26T13:17:59;101848.06;;;10.92;nan
70758;BME280;59316;52.964;7.102;2023-04-26T13:23:20;101842.31;;;10.84;nan
70758;BME280;59316;52.964;7.102;2023-04-26T13:28:42;101851.69;;;10.69;nan
70758;BME280;59316;52.964;7.102;2023-04-26T13:34:03;101845.66;;;10.67;nan
70758;BME280;59316;52.964;7.102;2023-04-26T13:39:26;101851.69;;;10.69;nan
70758;BME280;59316;52.964;7.102;2023-04-26T13:44:48;101858.41;;;11.14;nan
70758;BME280;59316;52.964;7.102;2023-04-26T13:50:10;101857.25;;;11.58;nan
70758;BME280;59316;52.964;7.102;2023-04-26T13:55:31;101851.44;;;11.88;nan
70758;BME280;59316;52.964;7.102;2023-04-26T14:00:53;101850.59;;;11.88;nan
70758;BME280;59316;52.964;7.102;2023-04-26T14:06:14;101848.69;;;11.91;nan
70758;BME280;59316;52.964;7.102;2023-04-26T14:11:35;101848.38;;;11.61;nan
70758;BME280;59316;52.964;7.102;2023-04-26T14:16:57;101860.72;;;11.21;nan
70758;BME280;59316;52.964;7.102;2023-04-26T14:22:19;101866.03;;;11.00;nan
70758;BME280;59316;52.964;7.102;2023-04-26T14:27:40;101887.47;;;9.61;nan
70758;BME280;59316;52.964;7.102;2023-04-26T14:33:02;101890.72;;;9.21;nan
70758;BME280;59316;52.964;7.102;2023-04-26T14:38:23;101886.34;;;9.44;nan
70758;BME280;59316;52.964;7.102;2023-04-26T14:43:45;101863.22;;;10.01;nan
70758;BME280;59316;52.964;7.102;2023-04-26T14:49:06;101868.91;;;10.54;nan
70758;BME280;59316;52.964;7.102;2023-04-26T14:54:28;101861.91;;;10.75;nan
70758;BME280;59316;52.964;7.102;2023-04-26T14:59:49;101863.75;;;10.92;nan
70758;BME280;59316;52.964;7.102;2023-04-26T15:05:11;101863.56;;;10.97;nan
70758;BME280;59316;52.964;7.102;2023-04-26T15:10:33;101868.56;;;11.40;nan
70758;BME280;59316;52.964;7.102;2023-04-26T15:15:55;101856.72;;;11.69;nan
70758;BME280;59316;52.964;7.102;2023-04-26T15:21:17;101848.91;;;12.04;nan
70758;BME280;59316;52.964;7.102;2023-04-26T15:26:39;101848.03;;;12.04;nan
70758;BME280;59316;52.964;7.102;2023-04-26T15:32:01;101848.09;;;12.39;nan
70758;BME280;59316;52.964;7.102;2023-04-26T15:37:23;101842.25;;;11.79;nan
70758;BME280;59316;52.964;7.102;2023-04-26T15:42:45;101847.84;;;11.54;nan
70758;BME280;59316;52.964;7.102;2023-04-26T15:48:06;101848.84;;;11.32;nan
70758;BME280;59316;52.964;7.102;2023-04-26T15:53:29;101859.13;;;10.78;nan
70758;BME280;59316;52.964;7.102;2023-04-26T15:58:51;101858.41;;;10.56;nan
70758;BME280;59316;52.964;7.102;2023-04-26T16:04:12;101867.63;;;10.22;nan
70758;BME280;59316;52.964;7.102;2023-04-26T16:09:34;101869.63;;;9.94;nan
70758;BME280;59316;52.964;7.102;2023-04-26T16:14:56;101876.00;;;9.87;nan
70758;BME280;59316;52.964;7.102;2023-04-26T16:20:17;101875.81;;;9.69;nan
70758;BME280;59316;52.964;7.102;2023-04-26T16:25:39;101875.06;;;9.67;nan
70758;BME280;59316;52.964;7.102;2023-04-26T16:31:01;101872.28;;;9.93;nan
70758;BME280;59316;52.964;7.102;2023-04-26T16:36:22;101871.41;;;10.14;nan
70758;BME280;59316;52.964;7.102;2023-04-26T16:41:44;101866.50;;;10.27;nan
70758;BME280;59316;52.964;7.102;2023-04-26T16:47:05;101871.22;;;10.19;nan
70758;BME280;59316;52.964;7.102;2023-04-26T16:52:27;101871.81;;;9.83;nan
70758;BME280;59316;52.964;7.102;2023-04-26T16:57:48;101872.97;;;9.53;nan
70758;BME280;59316;52.964;7.102;2023-04-26T17:03:10;101884.69;;;9.65;nan
70758;BME280;59316;52.964;7.102;2023-04-26T17:08:32;101873.66;;;9.59;nan
70758;BME280;59316;52.964;7.102;2023-04-26T17:13:53;101882.75;;;9.48;nan
70758;BME280;59316;52.964;7.102;2023-04-26T17:19:15;101883.91;;;9.63;nan
70758;BME280;59316;52.964;7.102;2023-04-26T17:24:36;101885.94;;;9.79;nan
70758;BME280;59316;52.964;7.102;2023-04-26T17:29:58;101882.84;;;10.12;nan
70758;BME280;59316;52.964;7.102;2023-04-26T17:35:20;101887.81;;;10.18;nan
70758;BME280;59316;52.964;7.102;2023-04-26T17:40:41;101888.22;;;10.29;nan
70758;BME280;59316;52.964;7.102;2023-04-26T17:46:03;101893.09;;;9.96;nan
70758;BME280;59316;52.964;7.102;2023-04-26T17:51:25;101904.22;;;9.33;nan
70758;BME280;59316;52.964;7.102;2023-04-26T17:56:46;101900.50;;;8.91;nan
70758;BME280;59316;52.964;7.102;2023-04-26T18:02:08;101902.84;;;8.73;nan
70758;BME280;59316;52.964;7.102;2023-04-26T18:07:29;101905.81;;;8.37;nan
70758;BME280;59316;52.964;7.102;2023-04-26T18:12:51;101910.16;;;8.12;nan
70758;BME280;59316;52.964;7.102;2023-04-26T18:18:12;101918.78;;;7.84;nan
70758;BME280;59316;52.964;7.102;2023-04-26T18:23:34;101914.34;;;7.59;nan
70758;BME280;59316;52.964;7.102;2023-04-26T18:28:55;101917.03;;;7.26;nan
70758;BME280;59316;52.964;7.102;2023-04-26T18:34:17;101920.34;;;7.00;nan
70758;BME280;59316;52.964;7.102;2023-04-26T18:39:38;101927.16;;;6.72;nan
70758;BME280;59316;52.964;7.102;2023-04-26T18:45:00;101923.88;;;6.66;nan
70758;BME280;59316;52.964;7.102;2023-04-26T18:50:21;101938.66;;;6.28;nan
70758;BME280;59316;52.964;7.102;2023-04-26T18:55:43;101943.53;;;6.05;nan
70758;BME280;59316;52.964;7.102;2023-04-26T19:01:04;101944.09;;;5.79;nan
70758;BME280;59316;52.964;7.102;2023-04-26T19:06:26;101953.31;;;5.53;nan
70758;BME280;59316;52.964;7.102;2023-04-26T19:11:47;101957.22;;;5.31;nan
70758;BME280;59316;52.964;7.102;2023-04-26T19:17:09;101957.66;;;5.07;nan
70758;BME280;59316;52.964;7.102;2023-04-26T19:22:30;101954.72;;;4.77;nan
70758;BME280;59316;52.964;7.102;2023-04-26T19:27:52;101954.72;;;4.77;nan
70758;BME280;59316;52.964;7.102;2023-04-26T19:33:13;101981.69;;;4.11;nan
70758;BME280;59316;52.964;7.102;2023-04-26T19:38:35;101984.78;;;3.75;nan
70758;BME280;59316;52.964;7.102;2023-04-26T19:43:56;101991.16;;;3.46;nan
70758;BME280;59316;52.964;7.102;2023-04-26T19:49:17;101981.19;;;3.14;nan
70758;BME280;59316;52.964;7.102;2023-04-26T19:54:39;101991.81;;;2.85;nan
70758;BME280;59316;52.964;7.102;2023-04-26T20:00:00;101995.41;;;2.63;nan
70758;BME280;59316;52.964;7.102;2023-04-26T20:05:26;101998.00;;;2.63;nan
70758;BME280;59316;52.964;7.102;2023-04-26T20:10:48;101995.88;;;3.07;nan
70758;BME280;59316;52.964;7.102;2023-04-26T20:16:10;101994.88;;;3.94;nan
70758;BME280;59316;52.964;7.102;2023-04-26T20:21:32;102000.22;;;4.42;nan
70758;BME280;59316;52.964;7.102;2023-04-26T20:26:54;101997.91;;;4.25;nan
70758;BME280;59316;52.964;7.102;2023-04-26T20:32:16;102004.41;;;3.90;nan
70758;BME280;59316;52.964;7.102;2023-04-26T20:37:37;102004.13;;;3.42;nan
70758;BME280;59316;52.964;7.102;2023-04-26T20:42:58;102007.09;;;3.05;nan
70758;BME280;59316;52.964;7.102;2023-04-26T20:48:20;102002.19;;;2.78;nan
70758;BME280;59316;52.964;7.102;2023-04-26T20:53:42;102005.94;;;2.40;nan
70758;BME280;59316;52.964;7.102;2023-04-26T20:59:03;102006.09;;;2.14;nan
70758;BME280;59316;52.964;7.102;2023-04-26T21:04:25;102004.44;;;2.02;nan
70758;BME280;59316;52.964;7.102;2023-04-26T21:09:46;101998.50;;;1.89;nan
70758;BME280;59316;52.964;7.102;2023-04-26T21:15:08;63551.88;;;-143.20;100.00
70758;BME280;59316;52.964;7.102;2023-04-26T21:20:30;101998.50;;;1.89;nan
70758;BME280;59316;52.964;7.102;2023-04-26T21:25:51;101991.69;;;1.68;nan
70758;BME280;59316;52.964;7.102;2023-04-26T21:31:12;102009.78;;;1.62;nan
70758;BME280;59316;52.964;7.102;2023-04-26T21:36:34;101996.03;;;1.55;nan
70758;BME280;59316;52.964;7.102;2023-04-26T21:41:56;102003.78;;;1.60;nan
70758;BME280;59316;52.964;7.102;2023-04-26T21:47:17;102003.81;;;1.57;nan
70758;BME280;59316;52.964;7.102;2023-04-26T21:52:39;101997.78;;;1.53;nan
70758;BME280;59316;52.964;7.102;2023-04-26T21:58:00;102009.81;;;1.51;nan
70758;BME280;59316;52.964;7.102;2023-04-26T22:03:21;102011.53;;;1.54;nan
70758;BME280;59316;52.964;7.102;2023-04-26T22:08:43;102012.38;;;1.53;nan
70758;BME280;59316;52.964;7.102;2023-04-26T22:14:04;102019.31;;;1.40;nan
70758;BME280;59316;52.964;7.102;2023-04-26T22:19:26;102021.88;;;1.43;nan
70758;BME280;59316;52.964;7.102;2023-04-26T22:24:49;102025.34;;;1.31;nan
70758;BME280;59316;52.964;7.102;2023-04-26T22:30:11;102016.78;;;1.20;nan
70758;BME280;59316;52.964;7.102;2023-04-26T22:35:45;102024.50;;;1.24;nan
70758;BME280;59316;52.964;7.102;2023-04-26T22:41:06;102031.38;;;1.17;nan
70758;BME280;59316;52.964;7.102;2023-04-26T22:46:28;102025.38;;;1.14;nan
70758;BME280;59316;52.964;7.102;2023-04-26T22:51:49;102024.50;;;1.15;nan
70758;BME280;59316;52.964;7.102;2023-04-26T22:57:25;102037.41;;;1.27;nan
70758;BME280;59316;52.964;7.102;2023-04-26T23:02:47;102030.50;;;1.34;nan
70758;BME280;59316;52.964;7.102;2023-04-26T23:08:09;102033.06;;;1.34;nan
70758;BME280;59316;52.964;7.102;2023-04-26T23:13:30;102032.22;;;1.30;nan
70758;BME280;59316;52.964;7.102;2023-04-26T23:18:51;102032.19;;;1.40;nan
70758;BME280;59316;52.964;7.102;2023-04-26T23:24:13;102040.78;;;1.42;nan
70758;BME280;59316;52.964;7.102;2023-04-26T23:29:34;102042.50;;;1.32;nan
70758;BME280;59316;52.964;7.102;2023-04-26T23:34:56;102044.25;;;1.27;nan
70758;BME280;59316;52.964;7.102;2023-04-26T23:40:17;102046.81;;;1.34;nan
70758;BME280;59316;52.964;7.102;2023-04-26T23:45:39;102046.81;;;1.28;nan
70758;BME280;59316;52.964;7.102;2023-04-26T23:51:00;102052.84;;;1.29;nan
70758;BME280;59316;52.964;7.102;2023-04-26T23:56:22;102056.25;;;1.31;nan
